Time;durP1;ratioP1;P1;durP2;ratioP2;P2;SDS_P1;SDS_P2;PMS_P1;PMS_P2;Temp;Humidity;BMP_temperature;BMP_pressure;BME280_temperature;BME280_humidity;BME280_pressure;Samples;Min_cycle;Max_cycle;Signal;HPM_P1;HPM_P2
2021/05/03 00:01:42;;;;;;;6.73;5.20;;;13.50;50.20;;;;;;5043419;28;20271;-43
2021/05/03 00:04:07;;;;;;;5.20;4.70;;;13.50;50.00;;;;;;5048552;28;20696;-44
2021/05/03 00:06:33;;;;;;;4.97;4.47;;;13.50;50.00;;;;;;5049206;28;20235;-43
2021/05/03 00:08:58;;;;;;;5.50;4.50;;;13.50;50.00;;;;;;5044686;28;20236;-43
2021/05/03 00:11:24;;;;;;;5.97;4.40;;;13.50;50.10;;;;;;5043692;28;20220;-45
2021/05/03 00:13:49;;;;;;;6.77;4.40;;;13.40;50.30;;;;;;5044170;28;20558;-43
2021/05/03 00:16:15;;;;;;;4.73;4.33;;;13.20;50.50;;;;;;5048709;28;20189;-44
2021/05/03 00:18:41;;;;;;;6.97;4.40;;;13.10;50.80;;;;;;5045152;28;20188;-44
2021/05/03 00:21:06;;;;;;;4.70;4.20;;;13.20;50.80;;;;;;5048083;28;20204;-47
2021/05/03 00:23:32;;;;;;;7.00;4.70;;;13.30;50.70;;;;;;5045070;28;20225;-43
2021/05/03 00:25:58;;;;;;;5.07;4.57;;;13.30;50.60;;;;;;5040319;28;20638;-44
2021/05/03 00:28:23;;;;;;;4.90;4.50;;;13.30;50.50;;;;;;5041675;28;20251;-44
2021/05/03 00:30:49;;;;;;;5.03;4.00;;;13.20;50.30;;;;;;5040983;28;20278;-44
2021/05/03 00:33:15;;;;;;;7.00;5.07;;;13.30;50.30;;;;;;5042350;28;20195;-48
2021/05/03 00:35:40;;;;;;;5.60;5.10;;;13.40;50.30;;;;;;5040709;28;20259;-44
2021/05/03 00:38:06;;;;;;;4.80;4.27;;;13.30;50.50;;;;;;5042999;28;20278;-43
2021/05/03 00:40:32;;;;;;;4.80;4.10;;;13.30;50.40;;;;;;5039675;28;20196;-45
2021/05/03 00:42:59;;;;;;;4.90;4.50;;;13.30;50.30;;;;;;5046378;28;20209;-44
2021/05/03 00:45:24;;;;;;;5.47;4.97;;;13.30;50.30;;;;;;5045662;28;20816;-46
2021/05/03 00:47:50;;;;;;;4.97;4.57;;;13.30;50.40;;;;;;5044433;28;21846;-43
2021/05/03 00:50:18;;;;;;;7.53;4.17;;;13.30;50.50;;;;;;5041526;28;20603;-47
2021/05/03 00:52:45;;;;;;;4.80;4.40;;;13.20;50.50;;;;;;5042514;28;21163;-44
2021/05/03 00:55:12;;;;;;;4.23;3.93;;;13.20;50.50;;;;;;5042261;28;20522;-43
2021/05/03 00:57:39;;;;;;;4.67;3.93;;;13.20;50.50;;;;;;5040815;28;22124;-46
2021/05/03 01:00:11;;;;;;;4.77;4.37;;;13.20;50.20;;;;;;5041006;28;20969;-46
2021/05/03 01:02:38;;;;;;;6.27;5.63;;;12.70;50.60;;;;;;5048303;28;20458;-44
2021/05/03 01:05:05;;;;;;;5.73;4.50;;;12.40;51.80;;;;;;5041728;28;20450;-46
2021/05/03 01:07:31;;;;;;;4.13;3.77;;;12.30;52.30;;;;;;5043405;28;20445;-43
2021/05/03 01:09:56;;;;;;;4.97;4.50;;;12.50;52.60;;;;;;5043558;28;20482;-43
2021/05/03 01:12:22;;;;;;;5.10;4.70;;;12.60;52.40;;;;;;5044402;28;20209;-44
2021/05/03 01:14:47;;;;;;;5.70;5.10;;;12.70;52.20;;;;;;5042146;28;20306;-46
2021/05/03 01:17:13;;;;;;;4.60;4.20;;;12.80;52.10;;;;;;5042091;28;20195;-45
2021/05/03 01:19:39;;;;;;;5.17;4.67;;;12.90;51.90;;;;;;5047119;28;20197;-45
2021/05/03 01:22:04;;;;;;;5.17;4.17;;;12.90;51.80;;;;;;5048125;28;20192;-44
2021/05/03 01:24:30;;;;;;;4.80;4.40;;;12.90;51.80;;;;;;5042793;28;20193;-44
2021/05/03 01:26:58;;;;;;;6.73;5.07;;;12.70;52.10;;;;;;5039503;28;20196;-45
2021/05/03 01:29:24;;;;;;;5.03;4.53;;;12.80;52.10;;;;;;5043622;28;20194;-43
2021/05/03 01:31:52;;;;;;;9.27;4.90;;;12.90;52.10;;;;;;5044751;28;20551;-43
2021/05/03 01:34:18;;;;;;;5.10;4.70;;;12.90;52.00;;;;;;5040717;28;20484;-43
2021/05/03 01:36:45;;;;;;;6.53;4.90;;;12.90;52.00;;;;;;5041387;28;20479;-43
2021/05/03 01:39:14;;;;;;;5.03;4.63;;;13.00;52.10;;;;;;5039822;28;20461;-45
2021/05/03 01:41:40;;;;;;;5.63;5.13;;;12.90;52.10;;;;;;5027099;28;20786;-43
2021/05/03 01:44:08;;;;;;;4.90;4.33;;;12.90;52.30;;;;;;5044528;28;20474;-44
2021/05/03 01:46:34;;;;;;;6.70;5.07;;;12.90;52.30;;;;;;5044925;28;20679;-43
2021/05/03 01:49:01;;;;;;;7.37;5.73;;;12.90;52.20;;;;;;5043796;28;20526;-43
2021/05/03 01:51:28;;;;;;;6.47;5.90;;;12.90;52.40;;;;;;5042044;28;20856;-43
2021/05/03 01:53:55;;;;;;;5.57;5.07;;;12.80;52.40;;;;;;5042631;28;22376;-43
2021/05/03 01:56:23;;;;;;;6.00;5.50;;;12.80;52.60;;;;;;5041489;28;20450;-45
2021/05/03 01:58:48;;;;;;;5.87;5.27;;;12.90;52.60;;;;;;5044237;28;20946;-43
2021/05/03 02:01:14;;;;;;;5.93;5.33;;;12.90;52.60;;;;;;5037126;28;20453;-45
2021/05/03 02:03:40;;;;;;;5.50;5.10;;;12.80;52.70;;;;;;5041635;28;20295;-43
2021/05/03 02:06:06;;;;;;;6.10;5.57;;;12.80;52.70;;;;;;5043852;28;20216;-44
2021/05/03 02:08:32;;;;;;;6.10;5.50;;;12.70;52.80;;;;;;5039861;28;20188;-43
2021/05/03 02:10:58;;;;;;;6.33;5.83;;;12.70;52.80;;;;;;5044313;28;20487;-43
2021/05/03 02:13:26;;;;;;;9.93;6.13;;;12.70;52.80;;;;;;5041387;28;20869;-44
2021/05/03 02:15:51;;;;;;;6.60;5.93;;;12.60;53.20;;;;;;5045858;28;20447;-44
2021/05/03 02:18:17;;;;;;;7.07;6.53;;;12.50;53.20;;;;;;5037100;28;20450;-45
2021/05/03 02:20:44;;;;;;;6.23;5.63;;;12.10;53.70;;;;;;5045748;28;20242;-43
2021/05/03 02:23:10;;;;;;;6.87;6.27;;;11.80;54.80;;;;;;5043200;28;20215;-43
2021/05/03 02:25:36;;;;;;;6.87;6.17;;;11.70;55.10;;;;;;5041536;28;20447;-43
2021/05/03 02:28:01;;;;;;;6.73;6.03;;;11.70;55.20;;;;;;5040200;28;20445;-43
2021/05/03 02:30:27;;;;;;;6.60;5.90;;;11.70;55.50;;;;;;5036585;28;20221;-43
2021/05/03 02:32:54;;;;;;;7.10;6.43;;;11.70;55.50;;;;;;5036135;28;20298;-43
2021/05/03 02:35:22;;;;;;;6.70;6.07;;;11.80;55.20;;;;;;5038334;28;20475;-43
2021/05/03 02:37:52;;;;;;;6.30;5.70;;;12.00;54.80;;;;;;5038357;28;20456;-45
2021/05/03 02:40:18;;;;;;;7.17;6.40;;;12.00;54.30;;;;;;5039417;28;20442;-43
2021/05/03 02:42:54;;;;;;;7.00;6.23;;;12.10;54.10;;;;;;5040017;28;20447;-44
2021/05/03 02:45:22;;;;;;;6.80;6.20;;;12.10;53.80;;;;;;5040054;28;20455;-44
2021/05/03 02:47:47;;;;;;;7.30;6.20;;;12.00;53.90;;;;;;5042071;28;20517;-46
2021/05/03 02:50:15;;;;;;;7.30;5.93;;;12.10;53.80;;;;;;5043096;28;20475;-44
2021/05/03 02:52:42;;;;;;;8.13;6.83;;;12.10;53.60;;;;;;5042328;28;20228;-43
2021/05/03 02:55:10;;;;;;;7.03;6.40;;;12.10;53.50;;;;;;5043973;28;20473;-44
2021/05/03 02:57:36;;;;;;;6.93;6.23;;;12.10;53.50;;;;;;5041335;28;20534;-44
2021/05/03 03:00:05;;;;;;;7.00;5.93;;;11.60;54.40;;;;;;5043140;28;20544;-44
2021/05/03 03:02:31;;;;;;;6.67;5.80;;;11.30;55.50;;;;;;5042050;28;20443;-44
2021/05/03 03:04:56;;;;;;;16.53;6.87;;;11.30;55.60;;;;;;5043822;28;20439;-44
2021/05/03 03:07:22;;;;;;;7.47;6.20;;;11.00;56.30;;;;;;5044261;28;20192;-46
2021/05/03 03:09:47;;;;;;;7.00;6.10;;;11.00;56.40;;;;;;5045008;28;20239;-45
2021/05/03 03:12:13;;;;;;;6.90;6.30;;;10.90;56.70;;;;;;5042692;28;20308;-44
2021/05/03 03:14:38;;;;;;;7.10;6.40;;;10.90;56.90;;;;;;5044199;28;20196;-45
2021/05/03 03:17:04;;;;;;;6.57;6.03;;;10.90;56.80;;;;;;5048049;28;20231;-43
2021/05/03 03:19:30;;;;;;;10.27;6.90;;;10.90;57.00;;;;;;5046587;28;20197;-43
2021/05/03 03:21:56;;;;;;;7.90;6.50;;;10.90;56.90;;;;;;5042009;28;20199;-43
2021/05/03 03:24:21;;;;;;;7.90;6.20;;;11.00;56.40;;;;;;5044344;28;20980;-44
2021/05/03 03:26:47;;;;;;;7.53;6.83;;;11.20;56.00;;;;;;5042135;28;20540;-44
2021/05/03 03:29:13;;;;;;;9.37;7.33;;;11.30;55.40;;;;;;5044799;28;20212;-45
2021/05/03 03:31:38;;;;;;;7.63;6.80;;;11.30;55.10;;;;;;5041721;28;20235;-43
2021/05/03 03:34:04;;;;;;;6.83;6.03;;;11.20;55.20;;;;;;5042874;28;20208;-43
2021/05/03 03:36:30;;;;;;;7.37;6.43;;;11.20;55.30;;;;;;5046148;28;20228;-43
2021/05/03 03:38:55;;;;;;;7.73;7.07;;;11.20;55.10;;;;;;5046848;28;21886;-43
2021/05/03 03:41:21;;;;;;;7.27;6.57;;;11.20;54.90;;;;;;5045596;28;20188;-44
2021/05/03 03:43:47;;;;;;;7.53;6.63;;;11.20;54.90;;;;;;5043711;28;20205;-44
2021/05/03 03:46:13;;;;;;;8.90;8.00;;;11.30;54.90;;;;;;5044707;28;20439;-43
2021/05/03 03:48:38;;;;;;;7.13;6.43;;;11.20;55.10;;;;;;5041501;28;20212;-44
2021/05/03 03:51:05;;;;;;;7.20;6.50;;;11.30;55.10;;;;;;5041819;28;21840;-44
2021/05/03 03:53:31;;;;;;;6.80;6.10;;;11.20;54.70;;;;;;5043040;28;20254;-43
2021/05/03 03:55:56;;;;;;;8.73;6.30;;;11.30;54.60;;;;;;5046025;28;20446;-43
2021/05/03 03:58:22;;;;;;;7.17;6.57;;;11.30;54.50;;;;;;5043144;28;20196;-42
2021/05/03 04:00:47;;;;;;;6.93;6.23;;;11.30;54.30;;;;;;5041372;28;20220;-43
2021/05/03 04:03:13;;;;;;;8.50;6.60;;;11.20;54.60;;;;;;5038460;28;20639;-43
2021/05/03 04:24:25;;;;;;;7.23;6.60;;;10.90;55.30;;;;;;5041752;28;20585;-43
2021/05/03 04:26:51;;;;;;;7.37;6.73;;;11.10;55.00;;;;;;5043802;28;20451;-44
2021/05/03 04:29:17;;;;;;;7.47;6.87;;;11.20;54.60;;;;;;5041700;28;20443;-44
2021/05/03 04:31:42;;;;;;;7.73;6.93;;;11.20;54.30;;;;;;5042358;28;20227;-45
2021/05/03 04:34:08;;;;;;;9.77;8.03;;;11.10;54.20;;;;;;5044389;28;20199;-44
2021/05/03 04:36:33;;;;;;;9.40;8.20;;;11.00;54.30;;;;;;5044781;28;20598;-44
2021/05/03 04:38:59;;;;;;;9.20;8.20;;;10.80;55.00;;;;;;5045320;28;20201;-43
2021/05/03 04:41:24;;;;;;;10.93;9.57;;;10.70;55.50;;;;;;5046225;28;20785;-45
2021/05/03 04:43:50;;;;;;;11.17;9.17;;;10.80;56.30;;;;;;5041264;28;20185;-43
2021/05/03 04:46:16;;;;;;;8.20;7.50;;;10.90;55.50;;;;;;5042505;28;20263;-44
2021/05/03 04:48:43;;;;;;;10.60;8.27;;;10.80;55.30;;;;;;5042238;28;20446;-43
2021/05/03 04:51:08;;;;;;;8.20;7.20;;;10.70;55.80;;;;;;5041910;28;20239;-43
2021/05/03 04:53:34;;;;;;;10.63;7.47;;;10.80;55.80;;;;;;5043790;28;21576;-44
2021/05/03 04:56:01;;;;;;;8.60;7.70;;;10.80;55.40;;;;;;5041577;28;20189;-46
2021/05/03 04:58:26;;;;;;;7.43;6.43;;;10.70;55.50;;;;;;5040055;28;20205;-43
2021/05/03 05:00:52;;;;;;;8.27;7.47;;;10.80;55.70;;;;;;5044076;28;20779;-43
2021/05/03 05:03:17;;;;;;;7.33;6.63;;;10.80;55.70;;;;;;5044881;28;20680;-43
2021/05/03 05:05:46;;;;;;;9.07;8.10;;;10.80;55.60;;;;;;5044495;28;20184;-44
2021/05/03 05:08:12;;;;;;;9.67;7.80;;;10.90;55.60;;;;;;5047667;28;20189;-44
2021/05/03 05:10:38;;;;;;;6.80;5.33;;;11.00;55.30;;;;;;5040950;28;21010;-42
2021/05/03 05:13:03;;;;;;;8.40;7.43;;;10.90;66.20;;;;;;5045681;28;20551;-43
2021/05/03 05:15:29;;;;;;;7.30;6.37;;;11.60;62.00;;;;;;5048610;28;20478;-42
2021/05/03 05:17:55;;;;;;;6.60;5.90;;;12.20;57.20;;;;;;5049960;28;20684;-43
2021/05/03 05:20:21;;;;;;;6.43;5.83;;;12.80;54.50;;;;;;5047266;28;20197;-45
2021/05/03 05:22:47;;;;;;;6.40;5.80;;;13.30;52.80;;;;;;5046027;28;20204;-43
2021/05/03 05:25:13;;;;;;;7.47;6.40;;;13.70;51.30;;;;;;5040866;28;20941;-43
2021/05/03 05:27:38;;;;;;;7.43;6.67;;;14.00;50.20;;;;;;5045006;28;20451;-42
2021/05/03 05:30:05;;;;;;;7.30;6.57;;;14.40;49.50;;;;;;5045381;28;20195;-44
2021/05/03 05:32:31;;;;;;;6.67;6.07;;;14.50;48.70;;;;;;5048550;28;20201;-43
2021/05/03 05:34:57;;;;;;;8.03;7.23;;;14.70;48.40;;;;;;5043007;28;20439;-42
2021/05/03 05:37:22;;;;;;;8.00;7.20;;;14.80;48.00;;;;;;5042813;28;20323;-43
2021/05/03 05:39:48;;;;;;;7.33;6.63;;;15.00;47.60;;;;;;5041421;28;20283;-44
2021/05/03 05:42:13;;;;;;;8.27;6.40;;;15.10;47.20;;;;;;5045824;28;20208;-43
2021/05/03 05:44:39;;;;;;;7.17;6.53;;;15.20;46.90;;;;;;5045954;28;20284;-43
2021/05/03 05:47:05;;;;;;;8.17;7.47;;;15.30;46.80;;;;;;5042121;28;20203;-44
2021/05/03 05:49:31;;;;;;;7.70;6.90;;;15.40;46.40;;;;;;5042163;28;20200;-43
2021/05/03 05:51:56;;;;;;;6.90;6.30;;;15.50;46.30;;;;;;5045575;28;20497;-43
2021/05/03 05:54:22;;;;;;;7.83;7.20;;;15.60;46.10;;;;;;5047586;28;20197;-43
2021/05/03 05:56:48;;;;;;;7.67;6.97;;;15.30;46.00;;;;;;5046012;28;20196;-44
2021/05/03 05:59:14;;;;;;;7.63;6.93;;;15.10;46.80;;;;;;5044186;28;20237;-44
2021/05/03 06:01:41;;;;;;;7.90;7.10;;;15.20;46.80;;;;;;5047326;28;20542;-42
2021/05/03 06:04:06;;;;;;;9.47;7.30;;;15.10;46.60;;;;;;5049317;28;20443;-44
2021/05/03 06:06:32;;;;;;;7.53;6.73;;;15.20;47.30;;;;;;5042944;28;20462;-45
2021/05/03 06:08:58;;;;;;;9.53;8.63;;;15.40;46.90;;;;;;5048198;28;20192;-43
2021/05/03 06:11:23;;;;;;;9.00;8.17;;;15.50;46.10;;;;;;5050436;28;20587;-43
2021/05/03 06:13:49;;;;;;;10.70;9.43;;;15.40;46.00;;;;;;5053419;28;20252;-43
2021/05/03 06:16:14;;;;;;;8.60;7.73;;;15.20;46.30;;;;;;5045889;28;20707;-45
2021/05/03 06:18:40;;;;;;;8.40;7.50;;;15.20;46.80;;;;;;5039343;28;20192;-44
2021/05/03 06:21:06;;;;;;;7.87;7.17;;;15.40;46.50;;;;;;5042861;28;20192;-44
2021/05/03 06:23:33;;;;;;;8.77;7.97;;;15.40;46.50;;;;;;5049411;28;20200;-46
2021/05/03 06:25:58;;;;;;;8.13;7.43;;;15.40;46.10;;;;;;5045860;28;20207;-46
2021/05/03 06:28:24;;;;;;;8.27;7.47;;;15.00;46.80;;;;;;5044008;28;20447;-44
2021/05/03 06:30:57;;;;;;;8.17;7.37;;;15.00;47.20;;;;;;5045429;28;20359;-43
2021/05/03 06:33:24;;;;;;;8.23;7.50;;;15.00;47.30;;;;;;5036074;28;20185;-44
2021/05/03 06:35:50;;;;;;;7.57;6.87;;;15.40;46.50;;;;;;5050881;28;20470;-42
2021/05/03 06:38:16;;;;;;;7.73;7.03;;;15.50;46.20;;;;;;5052678;28;20438;-43
2021/05/03 06:40:42;;;;;;;9.73;8.83;;;15.90;45.70;;;;;;5054956;28;20510;-43
2021/05/03 06:43:08;;;;;;;7.60;6.90;;;16.10;44.70;;;;;;5053327;28;20949;-43
2021/05/03 06:45:34;;;;;;;9.70;8.40;;;16.30;44.60;;;;;;5051545;28;20449;-42
2021/05/03 06:48:02;;;;;;;7.97;7.20;;;16.60;44.00;;;;;;5053303;28;20224;-44
2021/05/03 06:50:28;;;;;;;8.50;7.53;;;16.70;43.30;;;;;;5054416;28;20467;-43
2021/05/03 06:52:54;;;;;;;8.37;7.40;;;16.80;43.20;;;;;;5053256;28;20538;-43
2021/05/03 06:55:19;;;;;;;8.83;7.93;;;17.00;43.00;;;;;;5051536;28;20434;-43
2021/05/03 06:57:45;;;;;;;7.70;7.00;;;17.20;42.50;;;;;;5053197;28;20209;-46
2021/05/03 07:00:13;;;;;;;11.93;7.80;;;17.20;42.40;;;;;;5050808;28;20196;-43
2021/05/03 07:02:40;;;;;;;8.20;7.53;;;17.30;42.40;;;;;;5052365;28;20272;-44
2021/05/03 07:05:06;;;;;;;7.30;6.67;;;17.40;41.60;;;;;;5045254;28;20498;-44
2021/05/03 07:07:32;;;;;;;7.57;6.90;;;17.20;42.10;;;;;;5046756;28;20453;-42
2021/05/03 07:09:58;;;;;;;9.33;8.43;;;17.50;42.00;;;;;;5051815;28;20451;-43
2021/05/03 07:12:24;;;;;;;8.20;7.50;;;17.50;41.10;;;;;;5049999;28;20228;-43
2021/05/03 07:14:51;;;;;;;6.90;6.20;;;17.60;41.40;;;;;;5053977;28;20268;-43
2021/05/03 07:17:17;;;;;;;6.37;5.77;;;17.80;41.60;;;;;;5052420;28;20442;-43
2021/05/03 07:19:43;;;;;;;7.00;6.40;;;18.10;41.40;;;;;;5053262;28;20821;-43
2021/05/03 07:22:10;;;;;;;9.63;6.90;;;18.00;40.40;;;;;;5051599;28;20184;-43
2021/05/03 07:24:37;;;;;;;7.10;6.07;;;18.30;40.70;;;;;;5053707;28;20498;-43
2021/05/03 07:27:05;;;;;;;7.10;6.53;;;18.50;39.90;;;;;;5051256;28;20501;-44
2021/05/03 07:29:31;;;;;;;6.37;5.77;;;18.70;39.70;;;;;;5050495;28;20481;-43
2021/05/03 07:31:56;;;;;;;7.33;6.63;;;18.70;38.90;;;;;;5051871;28;20490;-43
2021/05/03 07:34:22;;;;;;;6.30;5.80;;;18.80;38.90;;;;;;5046824;28;20890;-43
2021/05/03 07:36:47;;;;;;;9.93;6.50;;;18.90;37.10;;;;;;5042742;28;20662;-44
2021/05/03 07:39:13;;;;;;;5.83;5.33;;;18.90;37.20;;;;;;5047915;28;20663;-43
2021/05/03 07:41:41;;;;;;;6.00;5.50;;;19.00;36.10;;;;;;5048296;28;20303;-45
2021/05/03 07:44:09;;;;;;;6.83;6.10;;;19.10;36.80;;;;;;5048575;28;20203;-44
2021/05/03 07:46:36;;;;;;;6.60;5.90;;;19.10;36.90;;;;;;5051560;28;20516;-43
2021/05/03 07:49:02;;;;;;;6.80;5.33;;;19.20;37.40;;;;;;5048041;28;20428;-44
2021/05/03 07:51:28;;;;;;;7.23;6.20;;;19.40;36.90;;;;;;5051233;28;20483;-43
2021/05/03 07:53:55;;;;;;;7.53;6.93;;;19.50;36.60;;;;;;5039210;28;20443;-44
2021/05/03 07:56:21;;;;;;;7.33;6.63;;;19.50;37.30;;;;;;5043408;28;20196;-49
2021/05/03 07:58:48;;;;;;;7.40;6.70;;;19.60;37.50;;;;;;5043771;28;20960;-45
2021/05/03 08:01:14;;;;;;;5.97;5.37;;;19.70;37.60;;;;;;5046819;28;20550;-45
2021/05/03 08:03:41;;;;;;;6.73;5.97;;;19.80;38.00;;;;;;5048794;28;20451;-44
2021/05/03 08:06:12;;;;;;;5.83;5.23;;;19.80;37.00;;;;;;5043915;28;20585;-45
2021/05/03 08:08:37;;;;;;;6.57;5.97;;;19.00;36.20;;;;;;5050318;28;20522;-44
2021/05/03 08:11:03;;;;;;;6.87;6.30;;;19.10;36.70;;;;;;5046571;28;21563;-43
2021/05/03 08:13:29;;;;;;;6.10;5.60;;;19.40;37.50;;;;;;5048632;28;20197;-45
2021/05/03 08:15:59;;;;;;;8.00;7.20;;;19.60;36.50;;;;;;5049244;28;20189;-49
2021/05/03 08:18:25;;;;;;;6.50;5.90;;;19.30;35.10;;;;;;5047718;28;20208;-43
2021/05/03 08:20:50;;;;;;;7.17;6.57;;;19.40;36.50;;;;;;5049151;28;20943;-44
2021/05/03 08:23:19;;;;;;;6.60;6.00;;;19.40;36.30;;;;;;5050329;28;20447;-44
2021/05/03 08:25:47;;;;;;;7.47;6.87;;;19.60;35.80;;;;;;5042122;28;20285;-45
2021/05/03 08:28:13;;;;;;;7.20;6.60;;;19.80;35.90;;;;;;5043556;28;20449;-44
2021/05/03 08:30:39;;;;;;;8.43;5.83;;;20.00;35.50;;;;;;5046606;28;20853;-44
2021/05/03 08:33:05;;;;;;;6.80;5.43;;;20.10;36.10;;;;;;5046977;28;20443;-44
2021/05/03 08:35:31;;;;;;;7.27;6.63;;;20.20;34.30;;;;;;5045512;28;20236;-46
2021/05/03 08:37:56;;;;;;;6.57;6.07;;;20.30;34.20;;;;;;5043098;28;20188;-43
2021/05/03 08:40:22;;;;;;;6.30;5.77;;;20.30;33.80;;;;;;5041789;28;20270;-45
2021/05/03 08:42:47;;;;;;;7.00;6.40;;;20.40;33.80;;;;;;5046057;28;20197;-43
2021/05/03 08:45:14;;;;;;;7.23;6.33;;;20.30;33.20;;;;;;5040721;28;20637;-44
2021/05/03 08:47:42;;;;;;;7.30;6.30;;;20.20;33.60;;;;;;5045856;28;20555;-43
2021/05/03 08:50:17;;;;;;;11.30;6.80;;;20.00;33.00;;;;;;5043922;28;20453;-44
2021/05/03 08:52:52;;;;;;;5.10;4.70;;;19.70;33.10;;;;;;5042614;28;20461;-43
2021/05/03 08:55:17;;;;;;;7.00;6.10;;;19.40;33.80;;;;;;5041649;28;20443;-45
2021/05/03 08:57:43;;;;;;;7.07;6.47;;;19.30;33.90;;;;;;5041525;28;20443;-43
2021/05/03 09:00:14;;;;;;;6.43;5.83;;;19.20;34.60;;;;;;5039705;28;20247;-44
2021/05/03 09:02:44;;;;;;;6.90;6.30;;;19.30;34.30;;;;;;5041460;28;20280;-44
2021/05/03 09:05:10;;;;;;;6.13;5.63;;;19.40;34.30;;;;;;5038787;28;20470;-45
2021/05/03 09:07:44;;;;;;;7.20;6.60;;;19.40;34.10;;;;;;5042647;28;20443;-44
2021/05/03 09:10:15;;;;;;;8.13;6.83;;;19.40;33.40;;;;;;5048262;28;20492;-43
2021/05/03 09:12:40;;;;;;;5.90;5.40;;;19.50;34.20;;;;;;5047813;28;20508;-43
2021/05/03 09:15:07;;;;;;;6.73;6.10;;;19.60;35.00;;;;;;5040407;28;20833;-45
2021/05/03 09:17:37;;;;;;;6.87;6.27;;;19.60;33.20;;;;;;5039296;28;20556;-45
2021/05/03 09:20:18;;;;;;;7.73;7.03;;;19.50;33.40;;;;;;5038077;28;20455;-44
2021/05/03 09:22:51;;;;;;;7.13;6.47;;;19.60;33.70;;;;;;5043884;28;20462;-46
2021/05/03 09:25:19;;;;;;;6.80;6.10;;;19.10;33.40;;;;;;5037432;28;20497;-45
2021/05/03 09:27:46;;;;;;;7.03;6.43;;;18.90;34.30;;;;;;5038718;28;20573;-46
2021/05/03 09:30:30;;;;;;;7.00;6.10;;;19.00;34.00;;;;;;5046558;28;20485;-43
2021/05/03 09:33:11;;;;;;;6.80;6.20;;;19.20;34.20;;;;;;5041868;28;20458;-45
2021/05/03 09:35:46;;;;;;;6.43;5.93;;;19.40;33.40;;;;;;5044588;28;20513;-45
2021/05/03 09:38:36;;;;;;;6.47;5.87;;;19.40;34.40;;;;;;5043406;28;20501;-43
2021/05/03 09:41:07;;;;;;;6.97;5.60;;;19.80;33.70;;;;;;5041325;28;20554;-44
2021/05/03 09:43:33;;;;;;;7.90;6.30;;;20.30;33.70;;;;;;5039714;28;20442;-43
2021/05/03 09:45:59;;;;;;;6.50;5.17;;;20.50;32.90;;;;;;5040509;28;20451;-44
2021/05/03 09:48:26;;;;;;;6.10;5.10;;;20.70;33.40;;;;;;5044682;28;20193;-45
2021/05/03 09:50:51;;;;;;;5.90;5.40;;;20.80;32.00;;;;;;5047461;28;20532;-43
2021/05/03 09:53:17;;;;;;;6.57;5.97;;;20.80;31.00;;;;;;5046754;28;20844;-44
2021/05/03 09:55:47;;;;;;;5.50;5.10;;;20.70;31.30;;;;;;5044330;28;20193;-43
2021/05/03 09:58:24;;;;;;;7.73;5.50;;;20.50;30.50;;;;;;5041221;28;20192;-43
2021/05/03 10:00:57;;;;;;;5.47;5.00;;;20.50;31.20;;;;;;5043280;28;20549;-46
2021/05/03 10:03:44;;;;;;;5.47;5.00;;;20.50;31.00;;;;;;5036903;28;21454;-44
2021/05/03 10:06:15;;;;;;;6.77;5.47;;;20.40;31.50;;;;;;5051075;28;20926;-43
2021/05/03 10:08:44;;;;;;;5.93;5.30;;;20.00;30.50;;;;;;5050923;28;20443;-43
2021/05/03 10:11:14;;;;;;;6.17;5.30;;;19.70;30.70;;;;;;5047648;28;20499;-43
2021/05/03 10:13:42;;;;;;;6.10;5.20;;;19.60;29.50;;;;;;5049097;28;20447;-43
2021/05/03 10:16:08;;;;;;;5.73;5.17;;;19.80;29.60;;;;;;5045335;28;20451;-44
2021/05/03 10:18:37;;;;;;;6.20;4.70;;;19.90;30.90;;;;;;5044623;28;20438;-43
2021/05/03 10:21:08;;;;;;;5.00;4.50;;;20.00;31.10;;;;;;5052924;28;20813;-44
2021/05/03 10:23:33;;;;;;;4.47;4.17;;;20.10;30.20;;;;;;5043107;28;20891;-43
2021/05/03 10:26:00;;;;;;;4.30;4.00;;;20.00;29.60;;;;;;5049791;28;20435;-43
2021/05/03 10:28:27;;;;;;;5.33;4.80;;;19.80;29.00;;;;;;5045746;28;20208;-47
2021/05/03 10:31:00;;;;;;;4.73;4.40;;;19.90;29.90;;;;;;5049894;28;20479;-44
2021/05/03 10:33:43;;;;;;;5.00;4.03;;;19.80;30.00;;;;;;5045121;28;20478;-43
2021/05/03 10:36:09;;;;;;;4.37;3.97;;;19.80;29.90;;;;;;5043820;28;20498;-44
2021/05/03 10:38:41;;;;;;;4.13;3.77;;;19.70;31.00;;;;;;5048113;28;20440;-43
2021/05/03 10:41:26;;;;;;;6.47;4.40;;;19.70;31.20;;;;;;5049381;28;20199;-45
2021/05/03 10:44:09;;;;;;;5.00;4.50;;;19.60;30.40;;;;;;5038448;28;21052;-43
2021/05/03 10:49:11;;;;;;;5.70;5.20;;;19.30;33.70;;;;;;5051482;28;20538;-44
2021/05/03 10:52:04;;;;;;;5.03;4.63;;;19.60;32.60;;;;;;5050175;28;21119;-43
2021/05/03 10:54:35;;;;;;;4.40;4.10;;;19.90;31.70;;;;;;5049946;28;20592;-43
2021/05/03 10:57:07;;;;;;;4.77;4.37;;;20.10;30.60;;;;;;5050077;28;20443;-43
2021/05/03 10:59:52;;;;;;;4.90;4.40;;;20.10;30.10;;;;;;5049838;28;20453;-43
2021/05/03 11:02:22;;;;;;;7.10;4.37;;;20.20;30.80;;;;;;5047049;28;20462;-43
2021/05/03 11:05:27;;;;;;;4.80;4.40;;;20.20;31.20;;;;;;5050797;28;20518;-43
2021/05/03 11:08:04;;;;;;;5.00;4.50;;;20.30;30.80;;;;;;4974063;28;20504;-43
2021/05/03 11:11:05;;;;;;;5.17;4.67;;;20.10;30.00;;;;;;4971197;28;20545;-43
2021/05/03 11:13:37;;;;;;;4.70;4.30;;;20.00;29.20;;;;;;5027620;28;20966;-43
2021/05/03 11:16:25;;;;;;;4.93;4.43;;;20.00;29.70;;;;;;5046296;28;20479;-43
2021/05/03 11:18:52;;;;;;;4.20;3.80;;;20.10;30.20;;;;;;5040705;28;20435;-44
2021/05/03 11:21:18;;;;;;;5.13;4.37;;;20.00;29.50;;;;;;5053049;28;20439;-44
2021/05/03 11:23:45;;;;;;;5.10;4.50;;;19.90;29.60;;;;;;5043248;28;22692;-43
2021/05/03 11:26:34;;;;;;;3.80;3.40;;;19.50;29.50;;;;;;5050541;28;20439;-44
2021/05/03 11:29:09;;;;;;;4.03;3.70;;;19.50;29.30;;;;;;5047242;28;20435;-44
2021/05/03 11:31:36;;;;;;;4.60;4.20;;;19.60;29.30;;;;;;5046677;28;22068;-44
2021/05/03 11:34:08;;;;;;;4.53;4.07;;;19.50;29.60;;;;;;5035016;28;20512;-43
2021/05/03 11:36:39;;;;;;;3.37;3.07;;;19.50;29.10;;;;;;5051363;28;20993;-43
2021/05/03 11:39:20;;;;;;;4.03;3.70;;;19.60;29.70;;;;;;5051044;28;20561;-44
2021/05/03 11:44:51;;;;;;;4.97;4.57;;;20.00;29.10;;;;;;5043808;28;21068;-46
2021/05/03 11:47:06;;;;;;;5.00;4.50;;;19.90;29.20;;;;;;5043184;28;20969;-44
2021/05/03 11:49:44;;;;;;;4.30;3.90;;;20.20;28.30;;;;;;5049568;28;20447;-44
2021/05/03 11:52:11;;;;;;;5.37;3.80;;;20.30;28.20;;;;;;5043966;28;20837;-46
2021/05/03 11:54:41;;;;;;;4.20;3.90;;;20.30;29.00;;;;;;5051414;28;20493;-43
2021/05/03 11:57:08;;;;;;;5.40;4.50;;;20.60;28.90;;;;;;5040263;28;20461;-44
2021/05/03 11:59:36;;;;;;;4.47;4.17;;;20.40;28.80;;;;;;5043407;28;20520;-43
2021/05/03 12:02:13;;;;;;;4.43;3.83;;;20.30;27.70;;;;;;5043157;28;20451;-45
2021/05/03 12:04:45;;;;;;;3.57;3.27;;;20.30;27.90;;;;;;5037729;28;20450;-46
2021/05/03 12:07:29;;;;;;;3.93;3.60;;;20.50;29.20;;;;;;5045205;28;20469;-44
2021/05/03 12:10:11;;;;;;;4.60;4.20;;;20.80;29.70;;;;;;5049393;28;20459;-44
2021/05/03 12:12:41;;;;;;;4.00;3.70;;;20.90;29.30;;;;;;5048883;28;20505;-44
2021/05/03 12:15:28;;;;;;;4.13;3.60;;;21.00;29.10;;;;;;5051033;28;20441;-44
2021/05/03 12:17:57;;;;;;;4.00;3.70;;;21.30;30.10;;;;;;5049522;28;20438;-45
2021/05/03 12:20:25;;;;;;;3.80;3.50;;;21.70;29.10;;;;;;5046055;28;20946;-45
2021/05/03 12:23:02;;;;;;;5.00;4.30;;;21.60;27.20;;;;;;5047879;28;20458;-44
2021/05/03 12:25:31;;;;;;;5.07;3.40;;;21.20;26.80;;;;;;5048449;28;20933;-44
2021/05/03 12:27:57;;;;;;;3.83;3.53;;;21.10;26.60;;;;;;5038789;28;20485;-43
2021/05/03 12:30:26;;;;;;;3.70;3.40;;;21.30;26.70;;;;;;5045543;28;20490;-45
2021/05/03 12:32:52;;;;;;;3.77;3.27;;;21.40;27.00;;;;;;5049620;28;20687;-43
2021/05/03 12:35:21;;;;;;;3.77;3.47;;;21.50;27.60;;;;;;5045537;28;20555;-43
2021/05/03 12:37:47;;;;;;;3.77;3.17;;;21.60;26.80;;;;;;5040642;28;20199;-43
2021/05/03 12:40:13;;;;;;;4.17;3.40;;;21.60;27.50;;;;;;5048915;28;20432;-43
2021/05/03 12:42:52;;;;;;;2.90;2.70;;;21.70;27.20;;;;;;5049799;28;20832;-42
2021/05/03 12:53:45;;;;;;;3.40;3.20;;;21.00;27.20;;;;;;5034193;28;20441;-43
2021/05/03 12:56:19;;;;;;;2.70;2.50;;;21.30;26.60;;;;;;5048619;28;20979;-43
2021/05/03 12:59:46;;;;;;;3.77;3.47;;;21.60;27.40;;;;;;5047491;28;20976;-43
2021/05/03 13:04:26;;;;;;;3.50;3.20;;;21.70;26.60;;;;;;5050973;28;20534;-43
2021/05/03 13:07:13;;;;;;;3.27;2.97;;;21.60;27.20;;;;;;5048979;28;20235;-43
2021/05/03 13:29:13;;;;;;;2.93;2.70;;;21.90;25.80;;;;;;5051565;28;20546;-43
2021/05/03 13:31:41;;;;;;;6.20;3.90;;;21.70;26.20;;;;;;5050394;28;20478;-45
2021/05/03 13:34:09;;;;;;;3.23;3.03;;;21.80;25.00;;;;;;5036651;28;20518;-42
2021/05/03 13:36:36;;;;;;;3.80;3.10;;;21.80;25.50;;;;;;5046852;28;20840;-43
2021/05/03 13:39:05;;;;;;;3.67;3.03;;;21.50;24.70;;;;;;5038282;28;20442;-43
2021/05/03 13:41:36;;;;;;;2.90;2.60;;;21.60;25.40;;;;;;5047092;28;20439;-43
2021/05/03 13:44:03;;;;;;;3.10;2.87;;;21.70;25.60;;;;;;5045459;28;20454;-43
2021/05/03 13:46:29;;;;;;;2.80;2.60;;;21.80;25.80;;;;;;5040103;28;20446;-44